Time;durP1;ratioP1;P1;durP2;ratioP2;P2;SDS_P1;SDS_P2;PMS_P1;PMS_P2;Temp;Humidity;BMP_temperature;BMP_pressure;BME280_temperature;BME280_humidity;BME280_pressure;Samples;Min_cycle;Max_cycle;Signal;HPM_P1;HPM_P2
2023/08/05 00:00:43;;;;;;;2.42;1.80;;;15.10;99.90;;;;;;5093844;28;20059;-80
2023/08/05 00:03:09;;;;;;;2.20;1.80;;;15.10;99.90;;;;;;5094251;28;20062;-80
2023/08/05 00:05:37;;;;;;;;;;;15.00;99.90;;;;;;5093658;28;20641;-80
2023/08/05 00:08:04;;;;;;;2.22;1.70;;;15.00;99.90;;;;;;5093880;28;19927;-80
2023/08/05 00:10:30;;;;;;;3.10;2.20;;;15.00;99.90;;;;;;5093802;28;20407;-78
2023/08/05 00:12:56;;;;;;;3.35;2.30;;;14.90;99.90;;;;;;5094347;28;20073;-80
2023/08/05 00:15:22;;;;;;;3.00;2.47;;;14.80;99.90;;;;;;5076707;28;20035;-80
2023/08/05 00:17:47;;;;;;;2.88;2.58;;;14.80;99.90;;;;;;5094137;28;20071;-79
2023/08/05 00:20:13;;;;;;;2.88;2.20;;;14.70;99.90;;;;;;5076095;28;20494;-80
2023/08/05 00:22:39;;;;;;;2.33;2.13;;;14.80;99.90;;;;;;5094278;28;20652;-80
2023/08/05 00:25:05;;;;;;;2.85;2.25;;;14.70;99.90;;;;;;5094223;28;20437;-80
2023/08/05 00:27:30;;;;;;;2.90;2.40;;;14.70;99.90;;;;;;5077150;28;20052;-80
2023/08/05 00:29:56;;;;;;;2.47;2.13;;;14.70;99.90;;;;;;5093444;28;20539;-80
2023/08/05 00:32:22;;;;;;;2.63;2.20;;;14.70;99.90;;;;;;5093346;28;20035;-80
2023/08/05 00:34:48;;;;;;;3.15;2.40;;;14.60;99.90;;;;;;5093497;28;20078;-80
2023/08/05 00:37:13;;;;;;;2.63;2.13;;;14.60;99.90;;;;;;5093558;28;20089;-80
2023/08/05 00:39:39;;;;;;;2.97;2.30;;;14.60;99.90;;;;;;5092251;28;20039;-80
2023/08/05 00:42:05;;;;;;;2.40;1.90;;;14.60;99.90;;;;;;5074517;28;20043;-80
2023/08/05 00:44:31;;;;;;;;;;;14.60;99.90;;;;;;5091328;28;20114;-80
2023/08/05 00:46:57;;;;;;;3.75;2.30;;;14.60;99.90;;;;;;5075499;28;20014;-80
2023/08/05 00:49:24;;;;;;;3.28;2.35;;;14.60;99.90;;;;;;5076355;28;20046;-80
2023/08/05 00:51:50;;;;;;;1.92;1.77;;;14.60;99.90;;;;;;5074790;28;20047;-80
2023/08/05 00:54:16;;;;;;;2.35;1.80;;;14.60;99.90;;;;;;5093586;28;20394;-80
2023/08/05 00:56:42;;;;;;;;;;;14.60;99.90;;;;;;5091855;28;20075;-80
2023/08/05 00:59:09;;;;;;;2.88;1.95;;;14.60;99.90;;;;;;5076418;28;19916;-80
2023/08/05 01:01:34;;;;;;;2.42;1.90;;;14.60;99.90;;;;;;5075130;28;20389;-80
2023/08/05 01:04:00;;;;;;;1.65;1.50;;;14.60;99.90;;;;;;5065175;28;20047;-80
2023/08/05 01:06:27;;;;;;;3.05;2.08;;;14.60;99.90;;;;;;5091690;28;20047;-80
2023/08/05 01:08:55;;;;;;;2.20;1.70;;;14.70;99.90;;;;;;5075001;28;20048;-80
2023/08/05 01:11:22;;;;;;;2.47;1.80;;;14.60;99.90;;;;;;5074694;28;20040;-80
2023/08/05 01:13:48;;;;;;;1.80;1.60;;;14.60;99.90;;;;;;5073859;28;20123;-80
2023/08/05 01:16:14;;;;;;;2.00;1.63;;;14.60;99.90;;;;;;5090973;28;20585;-80
2023/08/05 01:18:40;;;;;;;2.13;1.75;;;14.60;99.90;;;;;;5092624;28;20119;-80
2023/08/05 01:21:19;;;;;;;1.70;1.45;;;14.60;99.90;;;;;;5092998;28;20505;-80
2023/08/05 01:23:51;;;;;;;1.73;1.60;;;14.60;99.90;;;;;;5091716;28;20046;-80
2023/08/05 01:26:17;;;;;;;1.70;1.55;;;14.60;99.90;;;;;;5090382;28;20039;-80
2023/08/05 01:28:45;;;;;;;2.00;1.80;;;14.50;99.90;;;;;;5073080;28;20403;-80
2023/08/05 01:31:13;;;;;;;2.05;1.50;;;14.50;99.90;;;;;;5092251;28;20482;-80
2023/08/05 01:33:39;;;;;;;2.03;1.70;;;14.40;99.90;;;;;;5091534;28;20368;-80
2023/08/05 01:36:04;;;;;;;2.40;1.60;;;14.40;99.90;;;;;;5091248;28;20131;-80
2023/08/05 01:38:30;;;;;;;1.77;1.45;;;14.30;99.90;;;;;;5091354;28;20111;-81
2023/08/05 01:40:56;;;;;;;2.45;1.95;;;14.30;99.90;;;;;;5087408;28;20151;-80
2023/08/05 01:43:21;;;;;;;2.75;2.28;;;14.20;99.90;;;;;;5091402;28;20043;-80
2023/08/05 01:45:47;;;;;;;2.53;1.90;;;14.20;99.90;;;;;;5092745;28;20176;-80
2023/08/05 01:48:13;;;;;;;2.30;1.90;;;14.10;99.90;;;;;;5091773;28;20039;-80
2023/08/05 01:50:38;;;;;;;2.25;1.90;;;14.10;99.90;;;;;;5090782;28;20039;-80
2023/08/05 01:53:04;;;;;;;5.28;2.63;;;14.00;99.90;;;;;;5092653;28;20027;-80
2023/08/05 01:55:30;;;;;;;3.25;2.30;;;13.90;99.90;;;;;;5092388;28;20474;-80
2023/08/05 01:57:55;;;;;;;2.38;2.10;;;13.80;99.90;;;;;;5075078;28;20047;-80
2023/08/05 02:00:21;;;;;;;2.35;1.92;;;13.70;99.90;;;;;;5090996;28;20471;-79
2023/08/05 02:02:47;;;;;;;2.30;2.10;;;13.70;99.90;;;;;;5073199;28;20517;-79
2023/08/05 02:05:12;;;;;;;2.92;1.83;;;13.60;99.90;;;;;;5091174;28;20068;-79
2023/08/05 02:07:38;;;;;;;3.78;1.80;;;13.50;99.90;;;;;;5082112;28;20056;-80
2023/08/05 02:10:04;;;;;;;3.22;1.98;;;13.40;99.90;;;;;;5087399;28;20044;-80
2023/08/05 02:12:30;;;;;;;2.42;1.90;;;13.30;99.90;;;;;;5072401;28;20143;-80
2023/08/05 02:14:56;;;;;;;2.17;1.70;;;13.30;99.90;;;;;;5088736;28;20455;-79
2023/08/05 02:17:22;;;;;;;2.30;1.88;;;13.20;99.90;;;;;;5088179;28;20063;-80
2023/08/05 02:19:47;;;;;;;1.65;1.42;;;13.20;99.90;;;;;;5088597;28;20040;-80
2023/08/05 02:22:13;;;;;;;1.63;1.52;;;13.20;99.90;;;;;;5087069;28;20109;-80
2023/08/05 02:24:39;;;;;;;2.03;1.80;;;13.20;99.90;;;;;;5088090;28;20172;-80
2023/08/05 02:27:05;;;;;;;3.03;1.80;;;13.10;99.90;;;;;;5071352;28;20052;-80
2023/08/05 02:29:30;;;;;;;1.90;1.55;;;13.10;99.90;;;;;;5069455;28;20047;-79
2023/08/05 02:31:56;;;;;;;2.15;1.70;;;13.10;99.90;;;;;;5088018;28;20398;-79
2023/08/05 02:34:22;;;;;;;1.88;1.65;;;13.00;99.90;;;;;;5072165;28;20085;-77
2023/08/05 02:36:48;;;;;;;2.83;1.88;;;13.00;99.90;;;;;;5053779;28;20749;-79
2023/08/05 02:39:14;;;;;;;3.28;1.73;;;13.00;99.90;;;;;;5087654;28;20040;-78
2023/08/05 02:41:40;;;;;;;2.20;1.70;;;12.90;99.90;;;;;;5081123;28;20047;-79
2023/08/05 02:44:06;;;;;;;1.95;1.70;;;12.80;99.90;;;;;;5073210;28;20050;-78
2023/08/05 02:46:31;;;;;;;2.15;1.80;;;12.80;99.90;;;;;;5090991;28;20040;-80
2023/08/05 02:48:57;;;;;;;3.95;1.63;;;12.70;99.90;;;;;;5072180;28;20097;-78
2023/08/05 02:51:23;;;;;;;2.10;1.90;;;12.60;99.90;;;;;;5075353;28;20048;-78
2023/08/05 02:53:48;;;;;;;2.65;1.75;;;12.60;99.90;;;;;;5075244;28;20551;-78
2023/08/05 02:56:14;;;;;;;2.65;1.70;;;12.60;99.90;;;;;;5090358;28;20040;-78
2023/08/05 02:58:40;;;;;;;2.47;1.90;;;12.60;99.90;;;;;;5090420;28;20055;-79
2023/08/05 03:01:09;;;;;;;2.15;1.80;;;12.60;99.90;;;;;;5089797;28;20390;-78
2023/08/05 03:03:36;;;;;;;3.58;1.90;;;12.60;99.90;;;;;;5073282;28;20047;-78
2023/08/05 03:06:02;;;;;;;2.17;1.90;;;12.60;99.90;;;;;;5074500;28;20121;-78
2023/08/05 03:08:28;;;;;;;2.28;1.80;;;12.70;99.90;;;;;;5086439;28;20493;-78
2023/08/05 03:11:01;;;;;;;2.50;1.70;;;12.60;99.90;;;;;;5051670;28;20122;-78
2023/08/05 03:13:26;;;;;;;2.35;2.05;;;12.70;99.90;;;;;;5053437;28;20116;-78
2023/08/05 03:15:53;;;;;;;2.47;1.90;;;12.80;99.90;;;;;;5054175;28;20067;-78
2023/08/05 03:18:20;;;;;;;2.05;1.85;;;12.80;99.90;;;;;;5053840;28;20040;-79
2023/08/05 03:20:45;;;;;;;;;;;12.90;99.90;;;;;;5103940;28;20044;-78
2023/08/05 03:23:11;;;;;;;2.10;1.75;;;12.90;99.90;;;;;;5052920;28;19916;-78
2023/08/05 03:25:37;;;;;;;1.73;1.60;;;12.90;99.90;;;;;;5104861;28;20484;-79
2023/08/05 03:28:03;;;;;;;2.03;1.80;;;13.00;99.90;;;;;;5053780;28;20396;-78
2023/08/05 03:30:29;;;;;;;2.03;1.80;;;13.00;99.90;;;;;;5084896;28;20036;-78
2023/08/05 03:32:54;;;;;;;3.20;1.77;;;13.10;99.90;;;;;;5070639;28;20033;-78
2023/08/05 03:35:20;;;;;;;1.75;1.60;;;13.10;99.90;;;;;;5103394;28;20135;-78
2023/08/05 03:37:46;;;;;;;1.95;1.67;;;13.20;99.90;;;;;;5085540;28;20039;-78
2023/08/05 03:40:13;;;;;;;2.70;1.52;;;13.30;99.90;;;;;;5105111;28;20036;-78
2023/08/05 03:42:39;;;;;;;2.10;1.90;;;13.30;99.90;;;;;;5053373;28;20063;-78
2023/08/05 03:45:06;;;;;;;3.33;2.40;;;13.30;99.90;;;;;;5052959;28;20044;-78
2023/08/05 03:47:33;;;;;;;3.33;2.55;;;13.30;99.90;;;;;;5053191;28;20036;-78
2023/08/05 03:49:59;;;;;;;2.65;2.35;;;13.30;99.90;;;;;;5069444;28;20036;-78
2023/08/05 03:52:26;;;;;;;2.58;2.17;;;13.30;99.90;;;;;;5070943;28;20059;-78
2023/08/05 03:54:53;;;;;;;2.47;2.25;;;13.30;99.90;;;;;;5085613;28;20039;-78
2023/08/05 03:57:18;;;;;;;2.40;2.10;;;13.30;99.90;;;;;;5102079;28;20037;-78
2023/08/05 03:59:46;;;;;;;2.50;2.28;;;13.20;99.90;;;;;;5083766;28;20136;-78
2023/08/05 04:02:12;;;;;;;2.00;1.80;;;13.30;99.90;;;;;;5049295;28;20038;-78
2023/08/05 04:04:38;;;;;;;2.55;2.10;;;13.30;99.90;;;;;;5067773;28;20044;-78
2023/08/05 04:07:04;;;;;;;2.20;1.88;;;13.30;99.90;;;;;;5052504;28;20585;-78
2023/08/05 04:09:31;;;;;;;2.40;2.20;;;13.30;99.90;;;;;;5102050;28;20452;-78
2023/08/05 04:12:00;;;;;;;1.95;1.70;;;13.40;99.90;;;;;;5102160;28;20035;-78
2023/08/05 04:14:26;;;;;;;2.05;1.85;;;13.40;99.90;;;;;;5102810;28;20494;-79
2023/08/05 04:16:54;;;;;;;2.17;1.88;;;13.40;99.90;;;;;;5102300;28;20036;-79
2023/08/05 04:19:22;;;;;;;2.30;1.80;;;13.40;99.90;;;;;;5068569;28;20071;-79
2023/08/05 04:21:48;;;;;;;2.58;1.85;;;13.40;99.90;;;;;;5052794;28;20052;-79
2023/08/05 04:24:14;;;;;;;3.05;2.08;;;13.40;99.90;;;;;;5085935;28;20047;-79
2023/08/05 04:26:40;;;;;;;2.17;1.70;;;13.40;99.90;;;;;;5097607;28;20785;-78
2023/08/05 04:29:06;;;;;;;2.10;1.67;;;13.50;99.90;;;;;;5101284;28;20052;-78
2023/08/05 04:31:32;;;;;;;;;;;13.40;99.90;;;;;;5102964;28;20048;-78
2023/08/05 04:33:58;;;;;;;1.92;1.40;;;13.50;99.90;;;;;;5102021;28;19916;-78
2023/08/05 04:36:23;;;;;;;2.05;1.75;;;13.50;99.90;;;;;;5068267;28;20040;-78
2023/08/05 04:38:49;;;;;;;1.58;1.40;;;13.60;99.90;;;;;;5051498;28;20114;-78
2023/08/05 04:41:15;;;;;;;2.42;1.50;;;13.60;99.90;;;;;;5101010;28;20040;-78
2023/08/05 04:43:40;;;;;;;2.65;1.50;;;13.60;99.90;;;;;;5067232;28;20051;-78
2023/08/05 04:46:06;;;;;;;2.17;1.73;;;13.70;99.90;;;;;;5051742;28;20033;-78
2023/08/05 04:48:32;;;;;;;3.92;2.78;;;13.70;99.90;;;;;;5101882;28;20158;-78
2023/08/05 04:50:57;;;;;;;6.65;3.60;;;13.70;99.90;;;;;;5050234;28;20040;-78
2023/08/05 04:53:23;;;;;;;3.45;3.05;;;13.70;99.90;;;;;;5068963;28;20479;-79
2023/08/05 04:55:49;;;;;;;3.08;2.60;;;13.80;99.90;;;;;;5068353;28;20087;-79
2023/08/05 04:58:14;;;;;;;2.90;2.35;;;13.80;99.90;;;;;;5034707;28;20040;-78
2023/08/05 05:00:40;;;;;;;2.63;2.13;;;13.80;99.90;;;;;;5034909;28;20210;-78
2023/08/05 05:03:07;;;;;;;5.47;2.83;;;13.90;99.90;;;;;;5069351;28;20041;-79
2023/08/05 05:05:34;;;;;;;5.47;3.20;;;13.90;99.90;;;;;;5098706;28;20041;-79
2023/08/05 05:08:00;;;;;;;4.03;2.80;;;14.00;99.90;;;;;;5040200;28;20040;-78
2023/08/05 05:10:26;;;;;;;3.10;2.60;;;14.00;99.90;;;;;;5075478;28;20036;-79
2023/08/05 05:12:51;;;;;;;3.22;2.40;;;14.10;99.90;;;;;;5075794;28;20047;-79
2023/08/05 05:15:19;;;;;;;2.30;2.10;;;14.10;99.90;;;;;;5090575;28;20032;-79
2023/08/05 05:17:45;;;;;;;3.45;2.38;;;14.20;99.90;;;;;;5092328;28;20477;-79
2023/08/05 05:20:11;;;;;;;2.00;1.65;;;14.30;99.90;;;;;;5092523;28;20035;-79
2023/08/05 05:22:37;;;;;;;;;;;14.30;99.90;;;;;;5090830;28;20036;-78
2023/08/05 05:25:02;;;;;;;2.55;1.83;;;14.40;99.90;;;;;;5090203;28;20380;-79
2023/08/05 05:27:28;;;;;;;2.45;1.52;;;14.40;99.90;;;;;;5091464;28;20558;-78
2023/08/05 05:29:54;;;;;;;1.75;1.52;;;14.40;99.90;;;;;;5092247;28;20067;-78
2023/08/05 05:32:19;;;;;;;1.63;1.35;;;14.50;99.90;;;;;;5092521;28;20039;-78
2023/08/05 05:34:45;;;;;;;3.05;2.00;;;14.50;99.90;;;;;;5075541;28;20150;-79
2023/08/05 05:37:11;;;;;;;2.08;1.75;;;14.50;99.90;;;;;;5090119;28;20039;-78
2023/08/05 05:39:37;;;;;;;2.72;1.88;;;14.50;99.90;;;;;;5072621;28;20069;-79
2023/08/05 05:42:02;;;;;;;3.00;2.10;;;14.60;99.90;;;;;;5091759;28;20043;-79
2023/08/05 05:44:29;;;;;;;3.55;2.15;;;14.60;99.90;;;;;;5090844;28;20089;-79
2023/08/05 05:46:54;;;;;;;2.65;2.10;;;14.60;99.90;;;;;;5092435;28;20052;-78
2023/08/05 05:49:20;;;;;;;2.05;1.85;;;14.60;99.90;;;;;;5090192;28;20036;-78
2023/08/05 05:51:47;;;;;;;2.20;2.00;;;14.60;99.90;;;;;;5075384;28;20057;-79
2023/08/05 05:54:13;;;;;;;3.10;1.80;;;14.60;99.90;;;;;;5092264;28;20722;-79
2023/08/05 05:56:39;;;;;;;1.80;1.70;;;14.60;99.90;;;;;;5091160;28;20051;-78
2023/08/05 05:59:05;;;;;;;2.60;1.80;;;14.60;99.90;;;;;;5090203;28;20132;-78
2023/08/05 06:01:31;;;;;;;;;;;14.60;99.90;;;;;;5091635;28;20039;-78
2023/08/05 06:03:56;;;;;;;1.70;1.50;;;14.70;99.90;;;;;;5090009;28;19926;-79
2023/08/05 06:06:22;;;;;;;2.40;1.67;;;14.80;99.90;;;;;;5088585;28;20128;-78
2023/08/05 06:08:48;;;;;;;1.85;1.70;;;14.80;99.90;;;;;;5092385;28;20051;-78
2023/08/05 06:11:14;;;;;;;1.92;1.65;;;14.90;99.90;;;;;;5092538;28;20075;-78
2023/08/05 06:13:39;;;;;;;2.50;1.70;;;15.00;99.90;;;;;;5092357;28;20061;-79
2023/08/05 06:16:05;;;;;;;2.03;1.73;;;15.10;99.90;;;;;;5087439;28;20040;-80
2023/08/05 06:18:31;;;;;;;3.45;1.95;;;15.20;99.90;;;;;;5093359;28;20108;-79
2023/08/05 06:20:56;;;;;;;2.15;1.90;;;15.30;99.90;;;;;;5061824;28;20043;-79
2023/08/05 06:23:22;;;;;;;3.35;1.92;;;15.50;99.90;;;;;;5094443;28;20409;-79
2023/08/05 06:25:48;;;;;;;2.00;1.60;;;15.70;99.90;;;;;;5094177;28;20606;-79
2023/08/05 06:28:14;;;;;;;2.13;1.77;;;15.80;99.90;;;;;;5076358;28;20075;-79
2023/08/05 06:30:43;;;;;;;;;;;16.00;99.90;;;;;;5090067;28;20043;-79
2023/08/05 06:33:09;;;;;;;1.90;1.70;;;16.00;99.90;;;;;;5091535;28;20017;-79
2023/08/05 06:35:35;;;;;;;1.30;1.20;;;16.10;99.90;;;;;;5077630;28;20126;-79
2023/08/05 06:38:01;;;;;;;;;;;16.20;99.90;;;;;;5095239;28;20088;-80
2023/08/05 06:40:26;;;;;;;1.30;1.20;;;16.20;99.90;;;;;;5077716;28;20417;-79
2023/08/05 06:42:52;;;;;;;;;;;16.20;99.90;;;;;;5092781;28;20459;-79
2023/08/05 06:45:18;;;;;;;1.88;1.52;;;16.30;99.90;;;;;;5090870;27;19942;-79
2023/08/05 06:47:44;;;;;;;2.30;1.88;;;16.30;64.70;;;;;;5093594;28;20554;-79
2023/08/05 06:50:10;;;;;;;2.58;1.80;;;16.40;99.90;;;;;;5078764;28;20363;-80
2023/08/05 06:52:36;;;;;;;3.13;2.10;;;16.60;1.00;;;;;;5094810;28;20039;-80
2023/08/05 06:55:03;;;;;;;;;;;16.70;99.90;;;;;;5062054;28;20043;-80
2023/08/05 06:57:30;;;;;;;;;;;16.90;1.00;;;;;;5094998;28;19989;-80
2023/08/05 06:59:56;;;;;;;2.28;2.08;;;17.00;99.90;;;;;;5090007;28;19916;-80
2023/08/05 07:02:21;;;;;;;;;;;17.30;99.90;;;;;;5094481;28;20058;-79
2023/08/05 07:04:47;;;;;;;2.55;2.20;;;17.50;99.90;;;;;;5089254;28;19922;-80
2023/08/05 07:07:13;;;;;;;2.72;2.00;;;17.40;99.90;;;;;;5092219;28;20498;-80
2023/08/05 07:09:39;;;;;;;2.00;1.80;;;17.50;8.70;;;;;;5059931;28;20050;-80
2023/08/05 07:12:05;;;;;;;;;;;17.50;39.10;;;;;;5093854;27;20118;-80
2023/08/05 07:14:32;;;;;;;2.35;1.80;;;17.40;1.00;;;;;;5090594;28;19919;-80
2023/08/05 07:16:58;;;;;;;1.65;1.55;;;17.40;21.50;;;;;;5076321;28;20054;-80
2023/08/05 07:19:24;;;;;;;;;;;17.40;45.90;;;;;;5077004;28;20035;-80
2023/08/05 07:21:52;;;;;;;2.83;1.77;;;17.50;35.90;;;;;;5076661;28;20004;-80
2023/08/05 07:24:19;;;;;;;2.65;2.00;;;17.40;1.00;;;;;;5092923;28;20089;-81
2023/08/05 07:26:44;;;;;;;2.03;1.80;;;17.40;99.90;;;;;;5090125;27;20039;-81
2023/08/05 07:29:10;;;;;;;;;;;17.40;99.90;;;;;;5079176;28;20054;-80
2023/08/05 07:31:36;;;;;;;1.95;1.75;;;17.50;1.00;;;;;;5094901;28;19949;-81
2023/08/05 07:34:04;;;;;;;2.35;1.60;;;17.50;1.00;;;;;;5095218;28;20450;-81
2023/08/05 07:36:31;;;;;;;1.98;1.77;;;17.60;99.90;;;;;;5094214;28;20391;-80
2023/08/05 07:38:58;;;;;;;1.80;1.70;;;17.60;99.90;;;;;;5094289;28;20039;-80
2023/08/05 07:41:26;;;;;;;2.42;1.95;;;17.70;99.90;;;;;;5094783;28;20035;-81
2023/08/05 07:43:57;;;;;;;1.60;1.50;;;17.70;99.90;;;;;;5094783;28;20035;-80
2023/08/05 07:46:25;;;;;;;1.98;1.77;;;17.70;99.90;;;;;;5062191;28;20379;-81
2023/08/05 07:48:52;;;;;;;2.42;1.80;;;17.70;99.90;;;;;;5112115;27;20548;-80
2023/08/05 07:51:19;;;;;;;3.67;1.83;;;17.70;99.90;;;;;;5092880;28;20147;-80
2023/08/05 07:53:48;;;;;;;2.35;1.95;;;17.80;99.90;;;;;;5093555;28;20047;-80
2023/08/05 07:56:15;;;;;;;2.40;1.80;;;17.80;99.90;;;;;;5096928;27;20104;-81
2023/08/05 07:58:47;;;;;;;1.92;1.50;;;18.00;99.90;;;;;;5077944;28;20119;-81
2023/08/05 08:01:19;;;;;;;2.40;1.70;;;18.00;99.90;;;;;;5089781;28;20031;-81
2023/08/05 08:03:51;;;;;;;1.75;1.65;;;18.10;93.80;;;;;;5086517;28;20035;-80
2023/08/05 08:06:18;;;;;;;2.15;1.73;;;18.20;99.90;;;;;;5073483;28;20044;-79
2023/08/05 08:08:44;;;;;;;2.15;1.95;;;18.30;1.00;;;;;;5091460;28;20509;-80
2023/08/05 08:11:10;;;;;;;2.13;1.70;;;18.40;1.00;;;;;;5086936;28;20035;-80
2023/08/05 08:13:36;;;;;;;;;;;18.60;1.00;;;;;;5092023;28;20452;-79
2023/08/05 08:16:02;;;;;;;2.17;1.70;;;18.70;42.30;;;;;;5088797;28;19916;-80
2023/08/05 08:18:27;;;;;;;;;;;18.70;1.00;;;;;;5094511;28;20073;-80
2023/08/05 08:20:53;;;;;;;2.22;1.95;;;18.70;51.60;;;;;;5094263;28;19919;-80
2023/08/05 08:23:19;;;;;;;;;;;18.70;1.00;;;;;;5076887;28;20514;-80
2023/08/05 08:25:45;;;;;;;2.72;1.83;;;18.70;1.00;;;;;;5093038;28;20374;-80
2023/08/05 08:28:10;;;;;;;;;;;18.70;99.90;;;;;;5076231;28;20035;-80
2023/08/05 08:30:36;;;;;;;2.45;1.85;;;18.80;99.90;;;;;;5076428;28;20253;-80
2023/08/05 08:33:02;;;;;;;;;;;18.90;99.90;;;;;;5059376;28;20451;-80
2023/08/05 08:35:28;;;;;;;2.35;1.75;;;19.10;99.90;;;;;;5092961;28;19977;-81
2023/08/05 08:37:53;;;;;;;;;;;19.10;99.90;;;;;;5076635;28;20039;-81
2023/08/05 08:40:19;;;;;;;2.47;2.10;;;19.20;99.90;;;;;;5075491;28;20411;-81
2023/08/05 08:42:45;;;;;;;;;;;19.30;99.90;;;;;;5076058;28;20039;-81
2023/08/05 08:45:15;;;;;;;2.00;1.70;;;19.40;99.90;;;;;;5058963;28;20362;-81
2023/08/05 08:47:42;;;;;;;3.25;2.10;;;19.60;99.90;;;;;;5092340;28;20462;-81
2023/08/05 08:50:09;;;;;;;2.15;1.77;;;19.80;99.90;;;;;;5075448;28;20119;-81
2023/08/05 08:52:40;;;;;;;1.80;1.60;;;19.90;75.50;;;;;;5075749;28;20039;-81
2023/08/05 08:55:08;;;;;;;2.20;1.60;;;20.10;99.90;;;;;;5072897;28;20053;-81
2023/08/05 08:57:34;;;;;;;2.55;2.00;;;20.50;71.20;;;;;;5075656;28;20039;-81
2023/08/05 09:00:01;;;;;;;2.00;1.80;;;20.70;1.00;;;;;;5092308;28;20104;-81
2023/08/05 09:02:26;;;;;;;2.63;1.85;;;20.80;1.00;;;;;;5073039;28;20339;-81
2023/08/05 09:04:53;;;;;;;3.33;1.77;;;20.70;99.90;;;;;;5075514;28;20092;-81
2023/08/05 09:07:21;;;;;;;1.80;1.60;;;20.60;99.90;;;;;;5075533;28;20043;-81
2023/08/05 09:09:47;;;;;;;1.92;1.60;;;20.60;99.90;;;;;;5092073;28;20048;-81
2023/08/05 09:12:14;;;;;;;2.38;1.80;;;20.50;99.90;;;;;;5091525;28;20043;-81
2023/08/05 09:14:40;;;;;;;1.70;1.60;;;20.40;99.90;;;;;;5075405;28;20031;-81
2023/08/05 09:17:06;;;;;;;2.85;1.85;;;20.20;99.90;;;;;;5091909;28;20051;-81
2023/08/05 09:19:32;;;;;;;1.83;1.60;;;20.20;99.90;;;;;;5092306;28;20043;-81
2023/08/05 09:22:02;;;;;;;2.92;1.80;;;20.40;1.00;;;;;;5074826;28;20047;-80
2023/08/05 09:24:28;;;;;;;1.52;1.42;;;20.50;1.00;;;;;;5091858;28;20486;-81
2023/08/05 09:27:00;;;;;;;2.30;1.77;;;20.40;99.90;;;;;;5091723;28;20040;-81
2023/08/05 09:29:27;;;;;;;2.17;1.58;;;20.40;99.90;;;;;;5091990;28;20031;-80
2023/08/05 09:32:04;;;;;;;2.00;1.55;;;20.70;99.90;;;;;;5091768;28;20032;-80
2023/08/05 09:34:37;;;;;;;2.15;1.80;;;21.00;99.90;;;;;;5091439;28;20036;-80
2023/08/05 09:37:05;;;;;;;2.60;1.88;;;21.20;14.00;;;;;;5090519;28;20069;-80
2023/08/05 09:39:48;;;;;;;2.40;1.60;;;21.30;87.10;;;;;;5091136;28;20046;-80
2023/08/05 09:42:27;;;;;;;2.22;1.60;;;21.30;99.90;;;;;;5091950;28;20048;-80
2023/08/05 09:44:55;;;;;;;2.17;1.60;;;21.10;1.00;;;;;;5074408;28;20039;-80
2023/08/05 09:47:24;;;;;;;2.08;1.40;;;21.10;1.00;;;;;;5089643;28;20039;-80
2023/08/05 09:49:51;;;;;;;1.67;1.58;;;21.20;1.00;;;;;;5090068;28;20035;-80
2023/08/05 09:52:20;;;;;;;2.63;1.63;;;21.30;99.90;;;;;;5091160;28;20513;-80
2023/08/05 09:55:00;;;;;;;2.65;1.50;;;21.70;11.10;;;;;;5090522;28;20040;-79
2023/08/05 09:57:26;;;;;;;2.05;1.50;;;21.90;1.00;;;;;;5074810;28;20054;-79
2023/08/05 09:59:57;;;;;;;1.58;1.30;;;22.10;1.00;;;;;;5074564;28;20471;-79
2023/08/05 10:02:25;;;;;;;1.63;1.30;;;22.20;18.30;;;;;;5091620;28;20044;-80
2023/08/05 10:04:56;;;;;;;1.88;1.30;;;22.10;1.00;;;;;;5091031;28;20095;-79
2023/08/05 10:07:25;;;;;;;2.08;1.33;;;22.20;1.00;;;;;;5089887;28;20046;-79
2023/08/05 10:09:52;;;;;;;1.70;1.35;;;22.10;1.00;;;;;;5090813;28;20056;-79
2023/08/05 10:12:22;;;;;;;1.65;1.30;;;22.10;99.90;;;;;;5091325;28;20032;-79
2023/08/05 10:14:49;;;;;;;1.83;1.35;;;21.80;99.90;;;;;;5090809;28;20035;-78
2023/08/05 10:17:16;;;;;;;1.42;1.25;;;21.80;99.90;;;;;;5091425;28;20317;-78
2023/08/05 10:19:46;;;;;;;1.90;1.27;;;21.80;99.90;;;;;;5070777;28;20051;-78
2023/08/05 10:22:12;;;;;;;1.67;1.23;;;21.70;99.90;;;;;;5089275;28;20089;-78
2023/08/05 10:24:56;;;;;;;1.58;1.33;;;21.40;99.90;;;;;;5091512;28;20039;-79
2023/08/05 10:27:44;;;;;;;1.98;1.40;;;21.20;99.90;;;;;;5088939;28;20487;-79
2023/08/05 10:30:13;;;;;;;1.25;1.10;;;21.40;99.90;;;;;;5089468;28;20067;-78
2023/08/05 10:32:56;;;;;;;1.58;1.23;;;21.60;2.10;;;;;;5069457;28;20958;-78
2023/08/05 10:35:29;;;;;;;1.67;1.38;;;21.70;99.90;;;;;;5085430;28;20486;-78
2023/08/05 10:38:04;;;;;;;2.65;1.45;;;21.60;1.00;;;;;;5068955;28;20395;-78
2023/08/05 10:40:41;;;;;;;1.70;1.25;;;21.60;99.90;;;;;;5072058;28;20150;-78
2023/08/05 10:43:08;;;;;;;2.13;1.23;;;21.50;1.00;;;;;;5090618;28;20047;-78
2023/08/05 10:45:34;;;;;;;1.33;1.23;;;21.50;22.00;;;;;;5074539;28;20081;-78
2023/08/05 10:48:00;;;;;;;3.70;1.40;;;21.40;1.00;;;;;;5087638;28;20425;-79
2023/08/05 10:50:43;;;;;;;1.63;1.33;;;21.30;54.70;;;;;;5073118;28;20046;-78
2023/08/05 10:53:12;;;;;;;1.92;1.40;;;21.10;1.00;;;;;;5091233;28;20127;-78
2023/08/05 10:55:46;;;;;;;2.00;1.30;;;21.00;1.00;;;;;;5090560;28;20379;-78
2023/08/05 10:58:12;;;;;;;2.10;1.40;;;21.20;1.00;;;;;;5092457;28;20486;-78
2023/08/05 11:00:42;;;;;;;1.85;1.40;;;21.80;92.20;;;;;;5074616;28;20031;-79
2023/08/05 11:03:31;;;;;;;1.60;1.50;;;21.80;99.90;;;;;;5071017;28;20036;-78
2023/08/05 11:06:04;;;;;;;2.22;1.55;;;22.10;98.10;;;;;;5058043;28;20047;-78
2023/08/05 11:08:32;;;;;;;2.60;1.40;;;22.40;1.00;;;;;;5076471;28;20050;-78
2023/08/05 11:11:02;;;;;;;2.63;1.67;;;22.80;99.90;;;;;;5086123;28;20516;-79
2023/08/05 11:13:33;;;;;;;2.00;1.58;;;22.90;1.00;;;;;;5086361;27;20122;-79
2023/08/05 11:16:12;;;;;;;2.17;1.33;;;22.90;99.90;;;;;;5091181;27;20082;-79
2023/08/05 11:18:40;;;;;;;2.72;1.83;;;22.60;99.90;;;;;;5077073;28;20371;-78
2023/08/05 11:21:15;;;;;;;2.58;1.60;;;22.40;1.00;;;;;;5094273;28;20082;-79
2023/08/05 11:23:42;;;;;;;3.20;1.40;;;22.20;1.00;;;;;;5088509;28;20166;-78
2023/08/05 11:26:09;;;;;;;2.53;1.70;;;22.20;1.00;;;;;;5090102;28;20517;-79
2023/08/05 11:28:40;;;;;;;2.10;1.60;;;22.10;99.90;;;;;;5059755;28;20043;-79
2023/08/05 11:31:06;;;;;;;2.28;1.63;;;22.10;1.00;;;;;;5091853;28;20058;-79
2023/08/05 11:33:32;;;;;;;1.90;1.60;;;22.20;1.00;;;;;;5094227;28;20043;-78
2023/08/05 11:35:58;;;;;;;2.28;1.48;;;22.30;1.00;;;;;;5091873;27;20038;-79
2023/08/05 11:38:24;;;;;;;1.95;1.55;;;22.30;20.20;;;;;;5092481;28;20092;-79
2023/08/05 11:40:55;;;;;;;2.13;1.38;;;22.30;1.00;;;;;;5096226;28;20043;-79
2023/08/05 11:43:22;;;;;;;1.73;1.38;;;22.10;99.90;;;;;;5093634;28;20089;-79
2023/08/05 11:45:49;;;;;;;2.40;1.60;;;22.20;1.00;;;;;;5093272;28;20086;-79
2023/08/05 11:48:25;;;;;;;2.60;1.67;;;22.00;1.00;;;;;;5075660;28;20040;-78
2023/08/05 11:50:55;;;;;;;2.50;1.65;;;22.00;1.00;;;;;;5077242;28;20139;-78
2023/08/05 11:53:21;;;;;;;1.60;1.50;;;21.90;99.90;;;;;;5094483;28;20047;-79
2023/08/05 11:55:47;;;;;;;1.60;1.50;;;22.10;99.90;;;;;;5074590;28;20040;-79
2023/08/05 11:58:13;;;;;;;1.85;1.58;;;22.00;1.00;;;;;;5092694;28;20489;-78
2023/08/05 12:00:57;;;;;;;2.92;1.70;;;21.80;1.00;;;;;;5088475;28;20044;-78
2023/08/05 12:03:29;;;;;;;2.10;1.80;;;21.70;1.00;;;;;;5088734;28;20470;-78
2023/08/05 12:06:03;;;;;;;2.42;1.92;;;21.50;99.60;;;;;;5090197;28;20050;-77
2023/08/05 12:08:38;;;;;;;2.13;1.75;;;21.30;99.90;;;;;;5092719;28;20104;-78
2023/08/05 12:11:04;;;;;;;2.63;1.83;;;21.00;65.80;;;;;;5074844;28;20039;-78
2023/08/05 12:13:34;;;;;;;2.38;1.70;;;20.90;99.90;;;;;;5076059;28;20040;-79
2023/08/05 12:15:59;;;;;;;2.13;1.70;;;20.90;99.90;;;;;;5071618;28;20062;-78
2023/08/05 12:18:25;;;;;;;1.75;1.60;;;21.00;70.40;;;;;;5092937;28;20494;-78
2023/08/05 12:20:51;;;;;;;3.78;1.73;;;21.00;99.90;;;;;;5092634;28;20043;-78
2023/08/05 12:23:17;;;;;;;2.38;2.15;;;21.00;99.90;;;;;;5090946;28;20047;-78
2023/08/05 12:25:42;;;;;;;3.15;2.20;;;20.90;95.10;;;;;;5093342;28;20096;-79
2023/08/05 12:28:08;;;;;;;3.90;2.63;;;20.70;99.90;;;;;;5072890;28;20682;-78
2023/08/05 12:30:34;;;;;;;2.17;1.80;;;20.60;1.00;;;;;;5092245;28;20078;-78
2023/08/05 12:32:59;;;;;;;2.50;2.10;;;20.50;99.90;;;;;;5092340;28;20118;-78
2023/08/05 12:35:25;;;;;;;2.85;2.10;;;20.50;99.90;;;;;;5075563;28;20513;-78
2023/08/05 12:37:51;;;;;;;2.67;1.90;;;20.40;80.20;;;;;;5092713;28;20048;-78
2023/08/05 12:40:17;;;;;;;2.85;2.00;;;20.40;99.90;;;;;;5092240;28;20103;-76
2023/08/05 12:42:43;;;;;;;2.17;1.90;;;20.40;1.00;;;;;;5092420;28;20044;-78
2023/08/05 12:45:09;;;;;;;2.42;2.10;;;20.30;99.90;;;;;;5092841;28;20055;-78
2023/08/05 12:47:36;;;;;;;2.40;2.10;;;20.10;99.90;;;;;;5076090;27;20046;-77
2023/08/05 12:50:03;;;;;;;2.55;2.20;;;19.90;1.00;;;;;;5086355;28;20475;-77
2023/08/05 12:52:29;;;;;;;2.28;2.08;;;19.80;1.00;;;;;;5075956;28;20031;-78
2023/08/05 12:54:55;;;;;;;2.05;1.85;;;19.80;96.60;;;;;;5092289;28;20036;-78